createdAt,value
2022-09-15T00:00:12.215Z,99277.71
2022-09-15T00:03:04.323Z,99276.06
2022-09-15T00:05:36.344Z,99261.33
2022-09-15T00:08:08.377Z,99263.38
2022-09-15T00:10:40.460Z,99247.73
2022-09-15T00:13:12.435Z,99248.14
2022-09-15T00:15:44.838Z,99239.70
2022-09-15T00:18:17.136Z,99260.08
2022-09-15T00:20:49.386Z,99251.79
2022-09-15T00:23:21.792Z,99254.41
2022-09-15T00:25:54.972Z,99257.54
2022-09-15T00:28:27.266Z,99249.80
2022-09-15T00:30:59.452Z,99259.20
2022-09-15T00:33:31.686Z,99266.54
2022-09-15T00:36:06.592Z,99273.02
2022-09-15T00:38:37.679Z,99278.15
2022-09-15T00:41:11.540Z,99272.79
2022-09-15T00:43:51.001Z,99263.45
2022-09-15T00:46:25.465Z,99263.16
2022-09-15T00:49:02.280Z,99262.81
2022-09-15T00:51:39.527Z,99267.86
2022-09-15T00:54:15.867Z,99267.64
2022-09-15T00:56:52.640Z,99261.47
2022-09-15T00:59:27.519Z,99265.09
2022-09-15T01:02:04.583Z,99265.80
2022-09-15T01:04:36.793Z,99256.16
2022-09-15T01:07:14.056Z,99263.00
2022-09-15T01:09:51.087Z,99260.29
2022-09-15T01:12:24.053Z,99256.54
2022-09-15T01:14:56.270Z,99253.93
2022-09-15T01:17:40.606Z,99255.62
2022-09-15T01:20:44.616Z,99251.64
2022-09-15T01:23:29.527Z,99245.61
2022-09-15T01:26:27.786Z,99260.36
2022-09-15T01:29:36.952Z,99265.45
2022-09-15T01:32:34.290Z,99270.46
2022-09-15T01:35:14.768Z,99271.16
2022-09-15T01:37:52.963Z,99262.95
2022-09-15T01:40:28.749Z,99261.13
2022-09-15T01:43:03.132Z,99257.15
2022-09-15T01:45:36.465Z,99254.65
2022-09-15T01:48:10.667Z,99263.64
2022-09-15T01:50:48.133Z,99259.65
2022-09-15T01:53:23.119Z,99260.44
2022-09-15T01:56:01.605Z,99259.21
2022-09-15T01:58:33.956Z,99262.77
2022-09-15T02:01:11.182Z,99264.36
2022-09-15T02:03:48.960Z,99252.19
2022-09-15T02:06:36.746Z,99272.31
2022-09-15T02:09:13.905Z,99267.08
2022-09-15T02:11:55.698Z,99274.23
2022-09-15T02:14:43.210Z,99266.64
2022-09-15T02:17:19.717Z,99267.77
2022-09-15T02:19:55.621Z,99273.25
2022-09-15T02:22:30.593Z,99275.06
2022-09-15T02:25:06.504Z,99275.19
2022-09-15T02:27:44.293Z,99277.51
2022-09-15T02:30:19.755Z,99274.04
2022-09-15T02:32:57.308Z,99273.39
2022-09-15T02:35:33.504Z,99275.86
2022-09-15T02:38:09.233Z,99270.14
2022-09-15T02:40:45.847Z,99269.63
2022-09-15T02:43:19.371Z,99267.02
2022-09-15T02:45:51.470Z,99268.98
2022-09-15T02:48:25.321Z,99267.78
2022-09-15T02:50:57.297Z,99269.35
2022-09-15T02:53:29.236Z,99262.89
2022-09-15T02:56:01.293Z,99260.23
2022-09-15T02:58:33.236Z,99260.95
2022-09-15T03:01:07.595Z,99261.36
2022-09-15T03:03:42.841Z,99260.00
2022-09-15T03:06:20.015Z,99258.92
2022-09-15T03:08:53.983Z,99262.45
2022-09-15T03:11:28.018Z,99262.42
2022-09-15T03:14:01.550Z,99259.66
2022-09-15T03:16:35.592Z,99261.83
2022-09-15T03:19:07.869Z,99260.05
2022-09-15T03:21:39.775Z,99258.73
2022-09-15T03:24:12.508Z,99257.95
2022-09-15T03:26:44.960Z,99258.23
2022-09-15T03:29:17.172Z,99256.67
2022-09-15T03:31:49.298Z,99256.20
2022-09-15T03:34:21.585Z,99263.84
2022-09-15T03:36:53.989Z,99264.34
2022-09-15T03:39:26.523Z,99261.36
2022-09-15T03:41:58.677Z,99262.75
2022-09-15T03:44:30.994Z,99262.27
2022-09-15T03:47:03.530Z,99268.21
2022-09-15T03:49:35.648Z,99267.32
2022-09-15T03:52:07.737Z,99268.17
2022-09-15T03:54:40.133Z,99255.42
2022-09-15T03:57:12.108Z,99267.35
2022-09-15T03:59:43.967Z,99272.84
2022-09-15T04:02:16.067Z,99272.19
2022-09-15T04:04:49.497Z,99273.50
2022-09-15T04:07:21.985Z,99269.31
2022-09-15T04:09:54.514Z,99269.95
2022-09-15T04:12:26.565Z,99276.76
2022-09-15T04:14:58.561Z,99273.80
2022-09-15T04:17:30.773Z,99274.80
2022-09-15T04:20:03.035Z,99267.77
2022-09-15T04:22:35.099Z,99275.35
2022-09-15T04:25:09.373Z,99277.89
2022-09-15T04:27:41.631Z,99279.48
2022-09-15T04:30:14.837Z,99274.98
2022-09-15T04:32:46.953Z,99277.54
2022-09-15T04:35:22.062Z,99280.13
2022-09-15T04:37:56.611Z,99279.70
2022-09-15T04:40:28.693Z,99276.89
2022-09-15T04:43:01.125Z,99279.62
2022-09-15T04:45:33.669Z,99278.92
2022-09-15T04:48:05.810Z,99279.85
2022-09-15T04:50:37.718Z,99280.52
2022-09-15T04:53:10.681Z,99264.49
2022-09-15T04:55:42.993Z,99273.50
2022-09-15T04:58:15.287Z,99276.86
2022-09-15T05:00:47.938Z,99272.27
2022-09-15T05:03:20.041Z,99273.14
2022-09-15T05:05:52.570Z,99275.83
2022-09-15T05:08:24.784Z,99275.49
2022-09-15T05:11:02.462Z,99255.47
2022-09-15T05:13:34.926Z,99265.98
2022-09-15T05:16:13.025Z,99270.55
2022-09-15T05:18:47.022Z,99270.30
2022-09-15T05:21:19.908Z,99274.95
2022-09-15T05:23:53.215Z,99273.44
2022-09-15T05:26:28.253Z,99277.56
2022-09-15T05:29:00.727Z,99282.44
2022-09-15T05:31:35.055Z,99284.61
2022-09-15T05:34:08.008Z,99281.27
2022-09-15T05:36:40.194Z,99283.80
2022-09-15T05:39:12.530Z,99282.25
2022-09-15T05:41:45.038Z,99286.16
2022-09-15T05:44:17.515Z,99288.55
2022-09-15T05:46:50.095Z,99288.55
2022-09-15T05:49:22.061Z,99286.48
2022-09-15T05:51:54.180Z,99273.04
2022-09-15T05:54:27.446Z,99285.42
2022-09-15T05:56:59.340Z,99288.61
2022-09-15T05:59:31.536Z,99292.31
2022-09-15T06:02:03.957Z,99291.98
2022-09-15T06:04:35.993Z,99293.10
2022-09-15T06:07:08.101Z,99293.20
2022-09-15T06:09:40.449Z,99292.16
2022-09-15T06:12:12.680Z,99291.15
2022-09-15T06:14:46.041Z,99282.14
2022-09-15T06:17:17.971Z,99282.68
2022-09-15T06:19:50.358Z,99288.89
2022-09-15T06:22:22.321Z,99285.29
2022-09-15T06:24:54.490Z,99286.92
2022-09-15T06:27:26.586Z,99290.27
2022-09-15T06:29:58.543Z,99295.46
2022-09-15T06:32:30.822Z,99292.68
2022-09-15T06:35:07.087Z,99293.44
2022-09-15T06:37:39.366Z,99294.90
2022-09-15T06:40:13.029Z,99296.89
2022-09-15T06:42:45.267Z,99298.64
2022-09-15T06:45:17.474Z,99293.41
2022-09-15T06:48:02.095Z,99290.85
2022-09-15T06:50:41.872Z,99292.33
2022-09-15T06:53:14.031Z,99292.02
2022-09-15T06:55:46.028Z,99299.00
2022-09-15T06:58:18.183Z,99306.65
2022-09-15T07:00:50.261Z,99299.52
2022-09-15T07:03:22.374Z,99304.81
2022-09-15T07:05:54.401Z,99307.21
2022-09-15T07:08:26.526Z,99309.06
2022-09-15T07:10:59.757Z,99309.11
2022-09-15T07:13:31.805Z,99310.35
2022-09-15T07:16:06.362Z,99313.02
2022-09-15T07:18:42.989Z,99307.56
2022-09-15T07:21:18.523Z,99306.29
2022-09-15T07:23:51.666Z,99302.69
2022-09-15T07:26:26.028Z,99303.43
2022-09-15T07:29:00.043Z,99291.06
2022-09-15T07:31:34.533Z,99306.08
2022-09-15T07:34:07.851Z,99309.98
2022-09-15T07:36:39.842Z,99310.55
2022-09-15T07:39:13.289Z,99316.39
2022-09-15T07:41:45.865Z,99314.37
2022-09-15T07:44:18.326Z,99312.73
2022-09-15T07:46:50.806Z,99313.40
2022-09-15T07:49:22.748Z,99316.26
2022-09-15T07:51:54.756Z,99310.06
2022-09-15T07:54:27.260Z,99313.64
2022-09-15T07:57:01.075Z,99312.49
2022-09-15T07:59:34.405Z,99320.61
2022-09-15T08:02:08.707Z,99323.30
2022-09-15T08:04:40.925Z,99325.54
2022-09-15T08:07:13.345Z,99327.58
2022-09-15T08:09:45.907Z,99326.79
2022-09-15T08:12:19.051Z,99324.69
2022-09-15T08:14:51.430Z,99329.29
2022-09-15T08:17:23.519Z,99325.54
2022-09-15T08:19:55.508Z,99323.98
2022-09-15T08:22:28.124Z,99331.85
2022-09-15T08:25:00.130Z,99330.78
2022-09-15T08:27:32.247Z,99331.61
2022-09-15T08:30:04.979Z,99327.59
2022-09-15T08:32:37.356Z,99322.34
2022-09-15T08:35:10.625Z,99315.94
2022-09-15T08:37:42.821Z,99317.06
2022-09-15T08:40:22.181Z,99316.98
2022-09-15T08:42:59.228Z,99317.98
2022-09-15T08:45:38.530Z,99318.02
2022-09-15T08:48:15.760Z,99324.63
2022-09-15T08:50:53.198Z,99324.65
2022-09-15T08:53:31.012Z,99322.88
2022-09-15T08:56:09.753Z,99321.89
2022-09-15T08:58:42.552Z,99310.59
2022-09-15T09:01:26.219Z,99316.67
2022-09-15T09:04:25.755Z,99314.59
2022-09-15T09:07:12.068Z,99318.95
2022-09-15T09:09:51.050Z,99316.98
2022-09-15T09:12:48.737Z,99318.27
2022-09-15T09:15:36.644Z,99318.09
2022-09-15T09:18:36.690Z,99311.36
2022-09-15T09:21:19.205Z,99316.69
2022-09-15T09:23:58.408Z,99310.83
2022-09-15T09:26:33.299Z,99309.50
2022-09-15T09:29:08.174Z,99309.30
2022-09-15T09:31:41.517Z,99304.64
2022-09-15T09:34:24.056Z,99308.12
2022-09-15T09:36:59.045Z,99296.36
2022-09-15T09:39:31.471Z,99297.65
2022-09-15T09:42:05.821Z,99294.02
2022-09-15T09:44:38.243Z,99297.83
2022-09-15T09:47:10.435Z,99293.52
2022-09-15T09:49:48.188Z,99294.06
2022-09-15T09:52:36.065Z,99295.60
2022-09-15T09:55:23.153Z,99296.64
2022-09-15T09:57:55.568Z,99288.73
2022-09-15T10:00:36.058Z,99302.00
2022-09-15T10:03:17.097Z,99292.98
2022-09-15T10:06:03.777Z,99290.69
2022-09-15T10:08:36.895Z,99291.77
2022-09-15T10:11:12.052Z,99294.10
2022-09-15T10:13:56.552Z,99296.44
2022-09-15T10:16:28.806Z,99294.09
2022-09-15T10:19:01.631Z,99290.37
2022-09-15T10:21:33.807Z,99283.34
2022-09-15T10:24:32.262Z,99272.48
2022-09-15T10:27:19.122Z,99280.19
2022-09-15T10:29:51.080Z,99277.83
2022-09-15T10:32:31.753Z,99280.90
2022-09-15T10:35:07.547Z,99277.71
2022-09-15T10:37:53.341Z,99267.55
2022-09-15T10:40:35.435Z,99276.23
2022-09-15T10:43:24.789Z,99273.00
2022-09-15T10:46:05.194Z,99277.17
2022-09-15T10:48:51.242Z,99283.73
2022-09-15T10:51:41.767Z,99287.14
2022-09-15T10:54:31.639Z,99295.33
2022-09-15T10:57:12.115Z,99286.87
2022-09-15T10:59:53.494Z,99288.83
2022-09-15T11:02:45.299Z,99270.18
2022-09-15T11:05:37.425Z,99275.76
2022-09-15T11:08:31.986Z,99272.98
2022-09-15T11:11:14.289Z,99283.50
2022-09-15T11:14:00.004Z,99287.42
2022-09-15T11:16:44.367Z,99278.81
2022-09-15T11:19:41.423Z,99261.52
2022-09-15T11:22:19.965Z,99283.33
2022-09-15T11:24:55.003Z,99282.87
2022-09-15T11:27:34.506Z,99286.69
2022-09-15T11:30:14.811Z,99285.80
2022-09-15T11:32:54.304Z,99284.91
2022-09-15T11:35:35.679Z,99288.86
2022-09-15T11:38:20.768Z,99284.06
2022-09-15T11:40:58.056Z,99281.98
2022-09-15T11:43:39.024Z,99273.52
2022-09-15T11:46:16.851Z,99275.38
2022-09-15T11:48:59.116Z,99282.71
2022-09-15T11:51:36.006Z,99284.95
2022-09-15T11:54:14.967Z,99286.06
2022-09-15T11:56:48.528Z,99281.90
2022-09-15T11:59:28.846Z,99286.67
2022-09-15T12:02:11.358Z,99288.06
2022-09-15T12:04:58.593Z,99285.11
2022-09-15T12:07:34.139Z,99289.88
2022-09-15T12:10:18.939Z,99288.04
2022-09-15T12:12:53.167Z,99288.80
2022-09-15T12:15:28.462Z,99284.51
2022-09-15T12:18:34.329Z,99283.74
2022-09-15T12:21:13.299Z,99281.04
2022-09-15T12:23:51.923Z,99290.13
2022-09-15T12:26:26.390Z,99292.91
2022-09-15T12:29:02.390Z,99288.73
2022-09-15T12:31:37.679Z,99285.09
2022-09-15T12:34:38.551Z,99286.56
2022-09-15T12:37:16.428Z,99284.88
2022-09-15T12:39:49.572Z,99283.48
2022-09-15T12:42:24.912Z,99283.23
2022-09-15T12:44:59.721Z,99282.14
2022-09-15T12:47:36.160Z,99280.76
2022-09-15T12:50:23.245Z,99267.72
2022-09-15T12:52:59.400Z,99280.48
2022-09-15T12:55:36.081Z,99284.51
2022-09-15T12:58:18.477Z,99276.92
2022-09-15T13:01:14.381Z,99278.92
2022-09-15T13:04:26.481Z,99283.60
2022-09-15T13:07:39.328Z,99278.15
2022-09-15T13:10:33.270Z,99286.30
2022-09-15T13:13:31.150Z,99279.48
2022-09-15T13:16:07.629Z,99277.09
2022-09-15T13:18:41.245Z,99276.44
2022-09-15T13:21:18.931Z,99272.17
2022-09-15T13:23:55.894Z,99271.63
2022-09-15T13:26:30.719Z,99273.31
2022-09-15T13:29:02.550Z,99271.01
2022-09-15T13:32:05.383Z,99276.30
2022-09-15T13:35:04.860Z,99260.67
2022-09-15T13:38:07.784Z,99272.11
2022-09-15T13:41:07.151Z,99272.22
2022-09-15T13:44:02.420Z,99271.60
2022-09-15T13:46:49.851Z,99258.45
2022-09-15T13:49:43.519Z,99257.52
2022-09-15T13:52:34.068Z,99265.96
2022-09-15T13:55:21.275Z,99264.19
2022-09-15T14:01:01.548Z,99265.04
2022-09-15T14:03:42.251Z,99264.62
2022-09-15T14:06:19.028Z,99260.33
2022-09-15T14:08:54.400Z,99258.82
2022-09-15T14:11:30.429Z,99255.79
2022-09-15T14:14:03.206Z,99261.24
2022-09-15T14:16:37.813Z,99257.80
2022-09-15T14:19:32.498Z,99252.00
2022-09-15T14:22:19.774Z,99254.23
2022-09-15T14:24:53.988Z,99248.38
2022-09-15T14:27:28.947Z,99256.06
2022-09-15T14:30:02.630Z,99252.37
2022-09-15T14:32:39.604Z,99253.18
2022-09-15T14:35:19.761Z,99247.48
2022-09-15T14:37:55.656Z,99243.45
2022-09-15T14:40:31.107Z,99230.34
2022-09-15T14:43:03.311Z,99244.67
2022-09-15T14:48:34.690Z,99241.05
2022-09-15T14:51:12.638Z,99237.90
2022-09-15T14:53:46.565Z,99244.58
2022-09-15T14:56:23.594Z,99241.38
2022-09-15T14:58:57.669Z,99243.98
2022-09-15T15:01:37.728Z,99249.64
2022-09-15T15:04:17.398Z,99251.52
2022-09-15T15:06:57.273Z,99254.96
2022-09-15T15:09:33.507Z,99250.55
2022-09-15T15:12:12.285Z,99254.52
2022-09-15T15:14:45.347Z,99246.55
2022-09-15T15:17:29.493Z,99243.98
2022-09-15T15:20:12.955Z,99243.97
2022-09-15T15:22:46.547Z,99242.36
2022-09-15T15:25:27.998Z,99243.11
2022-09-15T15:28:01.063Z,99239.56
2022-09-15T15:30:44.961Z,99239.41
2022-09-15T15:33:26.930Z,99236.15
2022-09-15T15:36:08.462Z,99237.46
2022-09-15T15:38:48.357Z,99239.58
2022-09-15T15:41:24.117Z,99231.84
2022-09-15T15:44:03.410Z,99221.48
2022-09-15T15:46:56.035Z,99234.30
2022-09-15T15:49:30.472Z,99236.38
2022-09-15T15:52:03.879Z,99232.14
2022-09-15T15:54:36.857Z,99234.48
2022-09-15T15:57:24.592Z,99231.09
2022-09-15T16:00:00.614Z,99234.02
2022-09-15T16:02:33.641Z,99235.33
2022-09-15T16:05:07.322Z,99236.84
2022-09-15T16:07:41.162Z,99239.11
2022-09-15T16:10:18.566Z,99240.91
2022-09-15T16:12:52.081Z,99241.73
2022-09-15T16:15:24.659Z,99242.85
2022-09-15T16:17:57.104Z,99245.69
2022-09-15T16:20:30.734Z,99245.00
2022-09-15T16:23:03.228Z,99243.83
2022-09-15T16:25:40.861Z,99244.58
2022-09-15T16:28:12.872Z,99242.61
2022-09-15T16:30:45.812Z,99247.35
2022-09-15T16:33:19.621Z,99246.94
2022-09-15T16:35:55.562Z,99246.38
2022-09-15T16:38:28.714Z,99245.84
2022-09-15T16:41:02.412Z,99248.21
2022-09-15T16:43:34.317Z,99231.91
2022-09-15T16:46:09.888Z,99250.13
2022-09-15T16:48:43.805Z,99252.61
2022-09-15T16:51:27.941Z,99254.33
2022-09-15T16:54:02.786Z,99255.17
2022-09-15T16:56:35.761Z,99257.34
2022-09-15T16:59:08.030Z,99256.84
2022-09-15T17:01:40.290Z,99247.76
2022-09-15T17:04:16.520Z,99259.48
2022-09-15T17:06:49.009Z,99259.86
2022-09-15T17:09:22.370Z,99266.20
2022-09-15T17:11:56.309Z,99267.99
2022-09-15T17:14:28.395Z,99263.27
2022-09-15T17:17:00.476Z,99268.58
2022-09-15T17:19:32.891Z,99267.23
2022-09-15T17:22:04.982Z,99264.39
2022-09-15T17:24:37.503Z,99265.63
2022-09-15T17:27:09.840Z,99263.25
2022-09-15T17:29:41.944Z,99270.05
2022-09-15T17:32:14.122Z,99273.58
2022-09-15T17:34:47.065Z,99270.98
2022-09-15T17:37:19.908Z,99275.49
2022-09-15T17:39:58.680Z,99279.86
2022-09-15T17:42:31.417Z,99278.30
2022-09-15T17:45:03.869Z,99282.09
2022-09-15T17:47:38.392Z,99281.05
2022-09-15T17:50:12.300Z,99284.14
2022-09-15T17:52:45.773Z,99284.29
2022-09-15T17:55:21.683Z,99279.91
2022-09-15T17:57:54.424Z,99284.31
2022-09-15T18:00:29.557Z,99286.06
2022-09-15T18:03:03.619Z,99288.19
2022-09-15T18:05:37.581Z,99288.89
2022-09-15T18:08:11.381Z,99286.37
2022-09-15T18:10:43.774Z,99289.84
2022-09-15T18:13:19.746Z,99288.20
2022-09-15T18:15:52.127Z,99289.45
2022-09-15T18:18:27.021Z,99280.48
2022-09-15T18:20:59.842Z,99298.29
2022-09-15T18:23:33.060Z,99300.07
2022-09-15T18:26:05.148Z,99296.80
2022-09-15T18:28:37.698Z,99300.56
2022-09-15T18:31:10.678Z,99296.05
2022-09-15T18:33:43.514Z,99296.58
2022-09-15T18:36:16.202Z,99295.13
2022-09-15T18:38:49.258Z,99298.91
2022-09-15T18:41:21.651Z,99297.95
2022-09-15T18:43:54.068Z,99298.40
2022-09-15T18:46:26.652Z,99297.02
2022-09-15T18:48:59.277Z,99299.23
2022-09-15T18:51:50.433Z,99297.77
2022-09-15T18:54:23.928Z,99300.64
2022-09-15T18:56:56.494Z,99294.39
2022-09-15T18:59:28.695Z,99306.13
2022-09-15T19:02:00.779Z,99308.63
2022-09-15T19:04:37.219Z,99303.91
2022-09-15T19:07:12.646Z,99301.48
2022-09-15T19:09:45.045Z,99303.86
2022-09-15T19:12:17.063Z,99310.23
2022-09-15T19:14:49.386Z,99317.13
2022-09-15T19:17:21.516Z,99320.91
2022-09-15T19:19:54.259Z,99319.16
2022-09-15T19:22:26.662Z,99335.69
2022-09-15T19:24:59.128Z,99336.13
2022-09-15T19:27:31.651Z,99341.27
2022-09-15T19:30:04.316Z,99340.72
2022-09-15T19:32:36.768Z,99333.45
2022-09-15T19:35:11.375Z,99335.88
2022-09-15T19:37:44.359Z,99334.44
2022-09-15T19:40:17.750Z,99331.59
2022-09-15T19:42:50.939Z,99328.65
2022-09-15T19:45:23.309Z,99333.89
2022-09-15T19:47:55.251Z,99331.98
2022-09-15T19:50:27.368Z,99332.98
2022-09-15T19:52:59.825Z,99333.46
2022-09-15T19:55:34.342Z,99333.08
2022-09-15T19:58:06.865Z,99330.94
2022-09-15T20:00:38.903Z,99336.20
2022-09-15T20:03:11.861Z,99337.42
2022-09-15T20:05:50.211Z,99338.80
2022-09-15T20:08:25.321Z,99340.87
2022-09-15T20:10:58.603Z,99345.86
2022-09-15T20:13:31.830Z,99339.70
2022-09-15T20:16:07.043Z,99343.31
2022-09-15T20:18:42.245Z,99343.03
2022-09-15T20:21:26.884Z,99345.55
2022-09-15T20:24:11.711Z,99349.84
2022-09-15T20:26:46.848Z,99351.86
2022-09-15T20:29:20.829Z,99357.33
2022-09-15T20:31:55.213Z,99354.70
2022-09-15T20:34:28.197Z,99354.56
2022-09-15T20:37:01.193Z,99359.84
2022-09-15T20:39:34.338Z,99360.45
2022-09-15T20:42:07.861Z,99355.18
2022-09-15T20:44:41.105Z,99349.05
2022-09-15T20:47:14.478Z,99353.00
2022-09-15T20:49:48.373Z,99344.19
2022-09-15T20:52:24.966Z,99358.98
2022-09-15T20:54:59.920Z,99350.44
2022-09-15T20:57:33.782Z,99356.94
2022-09-15T21:00:10.134Z,99352.98
2022-09-15T21:02:42.923Z,99340.59
2022-09-15T21:05:15.555Z,99356.59
2022-09-15T21:07:50.604Z,99344.52
2022-09-15T21:10:24.979Z,99356.95
2022-09-15T21:12:57.724Z,99360.95
2022-09-15T21:15:30.163Z,99361.70
2022-09-15T21:18:02.568Z,99360.58
2022-09-15T21:20:35.748Z,99364.54
2022-09-15T21:23:08.093Z,99366.21
2022-09-15T21:25:41.045Z,99366.39
2022-09-15T21:28:15.662Z,99362.36
2022-09-15T21:30:48.373Z,99359.88
2022-09-15T21:33:20.870Z,99356.73
2022-09-15T21:35:53.542Z,99356.38
2022-09-15T21:38:25.990Z,99356.71
2022-09-15T21:40:58.358Z,99358.84
2022-09-15T21:43:36.139Z,99362.90
2022-09-15T21:46:12.082Z,99359.52
2022-09-15T21:48:46.249Z,99361.00
2022-09-15T21:51:24.267Z,99361.77
2022-09-15T21:53:58.641Z,99358.56
2022-09-15T21:56:32.251Z,99367.41
2022-09-15T21:59:05.359Z,99366.66
2022-09-15T22:01:38.033Z,99372.83
2022-09-15T22:04:11.607Z,99379.33
2022-09-15T22:06:45.169Z,99374.59
2022-09-15T22:09:21.542Z,99366.89
2022-09-15T22:11:54.386Z,99375.91
2022-09-15T22:14:26.844Z,99379.34
2022-09-15T22:16:59.345Z,99378.95
2022-09-15T22:19:31.855Z,99374.06
2022-09-15T22:22:04.242Z,99381.19
2022-09-15T22:24:36.648Z,99381.30
2022-09-15T22:27:09.385Z,99382.59
2022-09-15T22:29:42.008Z,99381.49
2022-09-15T22:32:14.375Z,99383.52
2022-09-15T22:34:47.226Z,99385.73
2022-09-15T22:37:20.147Z,99386.29
2022-09-15T22:39:58.869Z,99385.98
2022-09-15T22:42:31.995Z,99376.73
2022-09-15T22:45:04.801Z,99388.33
2022-09-15T22:47:37.250Z,99387.55
2022-09-15T22:50:10.244Z,99385.37
2022-09-15T22:52:42.560Z,99385.99
2022-09-15T22:55:15.026Z,99387.84
2022-09-15T22:57:49.097Z,99391.65
2022-09-15T23:00:23.170Z,99393.75
2022-09-15T23:03:04.407Z,99389.89
2022-09-15T23:05:36.997Z,99392.41
2022-09-15T23:08:10.091Z,99389.83
2022-09-15T23:10:41.983Z,99391.79
2022-09-15T23:13:13.905Z,99394.98
2022-09-15T23:15:46.896Z,99392.97
2022-09-15T23:18:19.136Z,99391.08
2022-09-15T23:20:56.472Z,99389.15
2022-09-15T23:23:29.134Z,99392.27
2022-09-15T23:26:01.933Z,99397.09
2022-09-15T23:28:34.305Z,99396.20
2022-09-15T23:31:07.189Z,99391.02
2022-09-15T23:33:39.344Z,99392.88
2022-09-15T23:36:14.346Z,99406.79
2022-09-15T23:38:47.834Z,99404.23
2022-09-15T23:41:20.402Z,99396.41
2022-09-15T23:43:52.307Z,99393.31
2022-09-15T23:46:24.682Z,99394.70
2022-09-15T23:48:56.628Z,99397.75
2022-09-15T23:51:28.661Z,99403.33
2022-09-15T23:54:01.927Z,99405.71
2022-09-15T23:56:34.272Z,99404.52
2022-09-15T23:59:06.520Z,99404.36
